sensor_id;sensor_type;location;lat;lon;timestamp;P1;durP1;ratioP1;P2;durP2;ratioP2
52512;SDS011;38422;53.172;6.974;2023-02-03T00:01:05;4.57;;;1.10;;
52512;SDS011;38422;53.172;6.974;2023-02-03T00:03:31;4.82;;;0.90;;
52512;SDS011;38422;53.172;6.974;2023-02-03T00:05:57;5.93;;;1.13;;
52512;SDS011;38422;53.172;6.974;2023-02-03T00:08:24;4.65;;;1.00;;
52512;SDS011;38422;53.172;6.974;2023-02-03T00:10:49;4.57;;;1.00;;
52512;SDS011;38422;53.172;6.974;2023-02-03T00:13:15;3.85;;;1.10;;
52512;SDS011;38422;53.172;6.974;2023-02-03T00:15:41;5.35;;;1.17;;
52512;SDS011;38422;53.172;6.974;2023-02-03T00:18:07;4.85;;;1.10;;
52512;SDS011;38422;53.172;6.974;2023-02-03T00:20:32;5.80;;;1.27;;
52512;SDS011;38422;53.172;6.974;2023-02-03T00:23:04;5.57;;;1.00;;
52512;SDS011;38422;53.172;6.974;2023-02-03T00:25:31;3.95;;;0.95;;
52512;SDS011;38422;53.172;6.974;2023-02-03T00:27:57;6.75;;;1.00;;
52512;SDS011;38422;53.172;6.974;2023-02-03T00:30:22;3.15;;;1.05;;
52512;SDS011;38422;53.172;6.974;2023-02-03T00:32:48;6.95;;;1.08;;
52512;SDS011;38422;53.172;6.974;2023-02-03T00:35:14;3.97;;;0.90;;
52512;SDS011;38422;53.172;6.974;2023-02-03T00:37:40;4.65;;;1.08;;
52512;SDS011;38422;53.172;6.974;2023-02-03T00:40:05;3.28;;;0.90;;
52512;SDS011;38422;53.172;6.974;2023-02-03T00:42:33;5.05;;;1.10;;
52512;SDS011;38422;53.172;6.974;2023-02-03T00:44:59;7.07;;;0.88;;
52512;SDS011;38422;53.172;6.974;2023-02-03T00:47:25;6.28;;;1.02;;
52512;SDS011;38422;53.172;6.974;2023-02-03T00:49:51;5.63;;;1.33;;
52512;SDS011;38422;53.172;6.974;2023-02-03T00:52:16;4.47;;;0.98;;
52512;SDS011;38422;53.172;6.974;2023-02-03T00:54:42;3.90;;;1.00;;
52512;SDS011;38422;53.172;6.974;2023-02-03T00:57:08;7.63;;;1.27;;
52512;SDS011;38422;53.172;6.974;2023-02-03T00:59:34;4.70;;;1.00;;
52512;SDS011;38422;53.172;6.974;2023-02-03T01:01:59;7.25;;;1.15;;
52512;SDS011;38422;53.172;6.974;2023-02-03T01:04:25;6.25;;;1.17;;
52512;SDS011;38422;53.172;6.974;2023-02-03T01:06:51;4.60;;;0.90;;
52512;SDS011;38422;53.172;6.974;2023-02-03T01:09:20;5.55;;;1.40;;
52512;SDS011;38422;53.172;6.974;2023-02-03T01:11:46;5.95;;;1.10;;
52512;SDS011;38422;53.172;6.974;2023-02-03T01:14:11;6.60;;;1.17;;
52512;SDS011;38422;53.172;6.974;2023-02-03T01:16:37;5.38;;;1.00;;
52512;SDS011;38422;53.172;6.974;2023-02-03T01:19:04;7.03;;;1.13;;
52512;SDS011;38422;53.172;6.974;2023-02-03T01:21:30;6.30;;;1.17;;
52512;SDS011;38422;53.172;6.974;2023-02-03T01:23:57;7.57;;;1.83;;
52512;SDS011;38422;53.172;6.974;2023-02-03T01:28:50;6.90;;;1.10;;
52512;SDS011;38422;53.172;6.974;2023-02-03T01:31:21;4.35;;;1.20;;
52512;SDS011;38422;53.172;6.974;2023-02-03T01:33:50;6.10;;;1.20;;
52512;SDS011;38422;53.172;6.974;2023-02-03T01:38:42;7.63;;;1.58;;
52512;SDS011;38422;53.172;6.974;2023-02-03T01:41:10;5.25;;;1.20;;
52512;SDS011;38422;53.172;6.974;2023-02-03T01:43:43;5.28;;;1.20;;
52512;SDS011;38422;53.172;6.974;2023-02-03T01:49:21;4.28;;;1.13;;
52512;SDS011;38422;53.172;6.974;2023-02-03T01:51:52;6.57;;;1.45;;
52512;SDS011;38422;53.172;6.974;2023-02-03T01:54:19;7.25;;;1.30;;
52512;SDS011;38422;53.172;6.974;2023-02-03T01:56:50;7.25;;;1.20;;
52512;SDS011;38422;53.172;6.974;2023-02-03T01:59:19;5.28;;;1.23;;
52512;SDS011;38422;53.172;6.974;2023-02-03T02:01:47;8.38;;;1.48;;
52512;SDS011;38422;53.172;6.974;2023-02-03T02:04:14;6.22;;;1.30;;
52512;SDS011;38422;53.172;6.974;2023-02-03T02:06:40;6.70;;;1.17;;
52512;SDS011;38422;53.172;6.974;2023-02-03T02:09:06;8.20;;;1.58;;
52512;SDS011;38422;53.172;6.974;2023-02-03T02:11:32;11.75;;;1.20;;
52512;SDS011;38422;53.172;6.974;2023-02-03T02:13:59;7.82;;;1.77;;
52512;SDS011;38422;53.172;6.974;2023-02-03T02:22:21;7.97;;;1.30;;
52512;SDS011;38422;53.172;6.974;2023-02-03T02:24:58;8.50;;;1.30;;
52512;SDS011;38422;53.172;6.974;2023-02-03T02:33:12;8.25;;;1.40;;
52512;SDS011;38422;53.172;6.974;2023-02-03T02:41:10;8.55;;;1.70;;
52512;SDS011;38422;53.172;6.974;2023-02-03T02:44:46;6.53;;;1.58;;
52512;SDS011;38422;53.172;6.974;2023-02-03T02:46:58;6.28;;;1.10;;
52512;SDS011;38422;53.172;6.974;2023-02-03T02:49:31;7.95;;;1.38;;
52512;SDS011;38422;53.172;6.974;2023-02-03T02:52:03;6.05;;;1.23;;
52512;SDS011;38422;53.172;6.974;2023-02-03T02:54:30;9.68;;;1.55;;
52512;SDS011;38422;53.172;6.974;2023-02-03T02:57:02;6.55;;;1.27;;
52512;SDS011;38422;53.172;6.974;2023-02-03T02:59:30;6.25;;;1.30;;
52512;SDS011;38422;53.172;6.974;2023-02-03T03:01:56;8.30;;;1.20;;
52512;SDS011;38422;53.172;6.974;2023-02-03T03:04:23;8.27;;;1.33;;
52512;SDS011;38422;53.172;6.974;2023-02-03T03:06:52;5.28;;;1.20;;
52512;SDS011;38422;53.172;6.974;2023-02-03T03:09:30;6.90;;;1.40;;
52512;SDS011;38422;53.172;6.974;2023-02-03T03:12:09;7.10;;;1.15;;
52512;SDS011;38422;53.172;6.974;2023-02-03T03:14:40;6.32;;;1.45;;
52512;SDS011;38422;53.172;6.974;2023-02-03T03:17:10;4.78;;;1.10;;
52512;SDS011;38422;53.172;6.974;2023-02-03T03:19:41;7.55;;;1.55;;
52512;SDS011;38422;53.172;6.974;2023-02-03T03:22:13;4.95;;;1.40;;
52512;SDS011;38422;53.172;6.974;2023-02-03T03:24:44;7.60;;;1.20;;
52512;SDS011;38422;53.172;6.974;2023-02-03T03:27:27;5.28;;;1.13;;
52512;SDS011;38422;53.172;6.974;2023-02-03T03:30:01;8.35;;;1.50;;
52512;SDS011;38422;53.172;6.974;2023-02-03T03:32:34;8.93;;;1.38;;
52512;SDS011;38422;53.172;6.974;2023-02-03T03:35:01;10.77;;;1.42;;
52512;SDS011;38422;53.172;6.974;2023-02-03T03:40:00;7.07;;;1.40;;
52512;SDS011;38422;53.172;6.974;2023-02-03T03:43:34;9.27;;;1.75;;
52512;SDS011;38422;53.172;6.974;2023-02-03T03:45:47;9.00;;;1.65;;
52512;SDS011;38422;53.172;6.974;2023-02-03T03:48:42;9.27;;;1.27;;
52512;SDS011;38422;53.172;6.974;2023-02-03T03:51:19;5.25;;;1.30;;
52512;SDS011;38422;53.172;6.974;2023-02-03T03:54:00;10.32;;;1.50;;
52512;SDS011;38422;53.172;6.974;2023-02-03T03:56:34;6.40;;;1.27;;
52512;SDS011;38422;53.172;6.974;2023-02-03T03:59:06;10.05;;;1.65;;
52512;SDS011;38422;53.172;6.974;2023-02-03T04:01:35;6.88;;;1.27;;
52512;SDS011;38422;53.172;6.974;2023-02-03T04:04:05;9.13;;;1.83;;
52512;SDS011;38422;53.172;6.974;2023-02-03T04:06:32;7.25;;;1.30;;
52512;SDS011;38422;53.172;6.974;2023-02-03T04:08:57;9.52;;;1.80;;
52512;SDS011;38422;53.172;6.974;2023-02-03T04:11:23;9.40;;;1.50;;
52512;SDS011;38422;53.172;6.974;2023-02-03T04:14:07;10.18;;;1.92;;
52512;SDS011;38422;53.172;6.974;2023-02-03T04:16:33;8.13;;;1.50;;
52512;SDS011;38422;53.172;6.974;2023-02-03T04:18:58;13.40;;;1.70;;
52512;SDS011;38422;53.172;6.974;2023-02-03T04:21:24;10.65;;;1.27;;
52512;SDS011;38422;53.172;6.974;2023-02-03T04:23:50;7.88;;;1.83;;
52512;SDS011;38422;53.172;6.974;2023-02-03T04:26:16;9.70;;;1.95;;
52512;SDS011;38422;53.172;6.974;2023-02-03T04:28:42;6.03;;;1.30;;
52512;SDS011;38422;53.172;6.974;2023-02-03T04:31:08;8.45;;;1.75;;
52512;SDS011;38422;53.172;6.974;2023-02-03T04:33:34;7.45;;;1.50;;
52512;SDS011;38422;53.172;6.974;2023-02-03T04:35:59;11.45;;;2.03;;
52512;SDS011;38422;53.172;6.974;2023-02-03T04:38:25;8.55;;;1.48;;
52512;SDS011;38422;53.172;6.974;2023-02-03T04:40:51;8.77;;;1.40;;
52512;SDS011;38422;53.172;6.974;2023-02-03T04:43:16;8.60;;;1.63;;
52512;SDS011;38422;53.172;6.974;2023-02-03T04:45:42;8.43;;;1.33;;
52512;SDS011;38422;53.172;6.974;2023-02-03T04:48:07;7.18;;;1.33;;
52512;SDS011;38422;53.172;6.974;2023-02-03T04:50:33;8.32;;;1.35;;
52512;SDS011;38422;53.172;6.974;2023-02-03T04:52:59;7.95;;;1.45;;
52512;SDS011;38422;53.172;6.974;2023-02-03T04:55:25;6.70;;;1.50;;
52512;SDS011;38422;53.172;6.974;2023-02-03T04:57:55;8.05;;;1.73;;
52512;SDS011;38422;53.172;6.974;2023-02-03T05:00:21;9.32;;;1.60;;
52512;SDS011;38422;53.172;6.974;2023-02-03T05:02:47;7.35;;;1.50;;
52512;SDS011;38422;53.172;6.974;2023-02-03T05:05:13;7.93;;;1.42;;
52512;SDS011;38422;53.172;6.974;2023-02-03T05:07:39;7.30;;;1.50;;
52512;SDS011;38422;53.172;6.974;2023-02-03T05:10:04;6.28;;;1.20;;
52512;SDS011;38422;53.172;6.974;2023-02-03T05:12:31;5.97;;;1.35;;
52512;SDS011;38422;53.172;6.974;2023-02-03T05:14:56;7.68;;;1.70;;
52512;SDS011;38422;53.172;6.974;2023-02-03T05:17:22;8.18;;;1.50;;
52512;SDS011;38422;53.172;6.974;2023-02-03T05:19:48;8.38;;;1.38;;
52512;SDS011;38422;53.172;6.974;2023-02-03T05:22:14;5.15;;;1.20;;
52512;SDS011;38422;53.172;6.974;2023-02-03T05:24:40;5.57;;;1.33;;
52512;SDS011;38422;53.172;6.974;2023-02-03T05:27:06;9.55;;;1.42;;
52512;SDS011;38422;53.172;6.974;2023-02-03T05:29:31;7.93;;;1.77;;
52512;SDS011;38422;53.172;6.974;2023-02-03T05:31:57;7.00;;;1.27;;
52512;SDS011;38422;53.172;6.974;2023-02-03T05:34:23;12.02;;;1.67;;
52512;SDS011;38422;53.172;6.974;2023-02-03T05:36:48;9.77;;;1.50;;
52512;SDS011;38422;53.172;6.974;2023-02-03T05:39:14;9.82;;;1.60;;
52512;SDS011;38422;53.172;6.974;2023-02-03T05:41:40;9.40;;;1.60;;
52512;SDS011;38422;53.172;6.974;2023-02-03T05:44:24;9.90;;;1.58;;
52512;SDS011;38422;53.172;6.974;2023-02-03T05:46:52;9.32;;;1.70;;
52512;SDS011;38422;53.172;6.974;2023-02-03T05:49:19;8.00;;;1.40;;
52512;SDS011;38422;53.172;6.974;2023-02-03T05:51:47;7.90;;;1.80;;
52512;SDS011;38422;53.172;6.974;2023-02-03T05:54:13;8.63;;;1.60;;
52512;SDS011;38422;53.172;6.974;2023-02-03T05:56:39;7.72;;;1.50;;
52512;SDS011;38422;53.172;6.974;2023-02-03T05:59:05;6.43;;;1.58;;
52512;SDS011;38422;53.172;6.974;2023-02-03T06:01:32;11.23;;;1.77;;
52512;SDS011;38422;53.172;6.974;2023-02-03T06:03:58;8.37;;;1.80;;
52512;SDS011;38422;53.172;6.974;2023-02-03T06:06:25;10.00;;;1.77;;
52512;SDS011;38422;53.172;6.974;2023-02-03T06:08:57;10.82;;;2.08;;
52512;SDS011;38422;53.172;6.974;2023-02-03T06:11:23;9.25;;;1.58;;
52512;SDS011;38422;53.172;6.974;2023-02-03T06:13:49;10.77;;;1.70;;
52512;SDS011;38422;53.172;6.974;2023-02-03T06:16:15;9.90;;;2.22;;
52512;SDS011;38422;53.172;6.974;2023-02-03T06:18:41;8.82;;;2.08;;
52512;SDS011;38422;53.172;6.974;2023-02-03T06:21:07;10.85;;;1.67;;
52512;SDS011;38422;53.172;6.974;2023-02-03T06:23:32;10.63;;;1.70;;
52512;SDS011;38422;53.172;6.974;2023-02-03T06:25:58;8.38;;;1.80;;
52512;SDS011;38422;53.172;6.974;2023-02-03T06:28:24;9.27;;;1.85;;
52512;SDS011;38422;53.172;6.974;2023-02-03T06:30:51;12.93;;;2.07;;
52512;SDS011;38422;53.172;6.974;2023-02-03T06:33:17;8.30;;;1.88;;
52512;SDS011;38422;53.172;6.974;2023-02-03T06:35:44;12.35;;;1.90;;
52512;SDS011;38422;53.172;6.974;2023-02-03T06:38:09;9.75;;;2.00;;
52512;SDS011;38422;53.172;6.974;2023-02-03T06:40:35;12.35;;;2.38;;
52512;SDS011;38422;53.172;6.974;2023-02-03T06:43:01;10.52;;;1.88;;
52512;SDS011;38422;53.172;6.974;2023-02-03T06:45:27;10.52;;;2.00;;
52512;SDS011;38422;53.172;6.974;2023-02-03T06:47:53;14.88;;;2.03;;
52512;SDS011;38422;53.172;6.974;2023-02-03T06:50:18;10.73;;;1.92;;
52512;SDS011;38422;53.172;6.974;2023-02-03T06:52:44;13.50;;;2.33;;
52512;SDS011;38422;53.172;6.974;2023-02-03T06:55:10;13.32;;;2.10;;
52512;SDS011;38422;53.172;6.974;2023-02-03T06:57:41;9.50;;;1.90;;
52512;SDS011;38422;53.172;6.974;2023-02-03T07:00:11;12.50;;;1.80;;
52512;SDS011;38422;53.172;6.974;2023-02-03T07:02:38;12.07;;;2.35;;
52512;SDS011;38422;53.172;6.974;2023-02-03T07:05:04;9.77;;;2.00;;
52512;SDS011;38422;53.172;6.974;2023-02-03T07:07:30;10.35;;;2.33;;
52512;SDS011;38422;53.172;6.974;2023-02-03T07:09:57;12.55;;;2.30;;
52512;SDS011;38422;53.172;6.974;2023-02-03T07:12:22;8.82;;;2.22;;
52512;SDS011;38422;53.172;6.974;2023-02-03T07:14:48;11.30;;;2.05;;
52512;SDS011;38422;53.172;6.974;2023-02-03T07:17:14;12.43;;;2.50;;
52512;SDS011;38422;53.172;6.974;2023-02-03T07:19:39;10.50;;;1.90;;
52512;SDS011;38422;53.172;6.974;2023-02-03T07:22:05;12.18;;;2.05;;
52512;SDS011;38422;53.172;6.974;2023-02-03T07:24:31;13.07;;;2.70;;
52512;SDS011;38422;53.172;6.974;2023-02-03T07:26:56;12.48;;;2.25;;
52512;SDS011;38422;53.172;6.974;2023-02-03T07:29:22;13.85;;;2.63;;
52512;SDS011;38422;53.172;6.974;2023-02-03T07:31:48;7.28;;;1.52;;
52512;SDS011;38422;53.172;6.974;2023-02-03T07:34:13;11.52;;;2.10;;
52512;SDS011;38422;53.172;6.974;2023-02-03T07:36:39;14.00;;;2.25;;
52512;SDS011;38422;53.172;6.974;2023-02-03T07:39:05;11.45;;;1.98;;
52512;SDS011;38422;53.172;6.974;2023-02-03T07:41:31;13.57;;;2.00;;
52512;SDS011;38422;53.172;6.974;2023-02-03T07:43:56;14.15;;;2.05;;
52512;SDS011;38422;53.172;6.974;2023-02-03T07:46:22;12.15;;;2.35;;
52512;SDS011;38422;53.172;6.974;2023-02-03T07:48:48;13.57;;;2.55;;
52512;SDS011;38422;53.172;6.974;2023-02-03T07:51:14;12.95;;;2.17;;
52512;SDS011;38422;53.172;6.974;2023-02-03T07:53:39;13.27;;;2.10;;
52512;SDS011;38422;53.172;6.974;2023-02-03T07:56:05;9.25;;;2.17;;
52512;SDS011;38422;53.172;6.974;2023-02-03T07:58:31;12.73;;;2.55;;
52512;SDS011;38422;53.172;6.974;2023-02-03T08:00:57;12.55;;;2.50;;
52512;SDS011;38422;53.172;6.974;2023-02-03T08:03:24;11.15;;;2.28;;
52512;SDS011;38422;53.172;6.974;2023-02-03T08:05:50;13.18;;;2.65;;
52512;SDS011;38422;53.172;6.974;2023-02-03T08:10:42;13.55;;;2.85;;
52512;SDS011;38422;53.172;6.974;2023-02-03T08:13:08;13.82;;;2.35;;
52512;SDS011;38422;53.172;6.974;2023-02-03T08:15:34;14.40;;;2.50;;
52512;SDS011;38422;53.172;6.974;2023-02-03T08:18:00;11.85;;;2.40;;
52512;SDS011;38422;53.172;6.974;2023-02-03T08:20:26;13.57;;;2.65;;
52512;SDS011;38422;53.172;6.974;2023-02-03T08:22:51;13.77;;;3.00;;
52512;SDS011;38422;53.172;6.974;2023-02-03T08:25:17;14.63;;;2.92;;
52512;SDS011;38422;53.172;6.974;2023-02-03T08:27:43;15.15;;;2.40;;
52512;SDS011;38422;53.172;6.974;2023-02-03T08:30:11;16.55;;;3.10;;
52512;SDS011;38422;53.172;6.974;2023-02-03T08:32:38;17.75;;;3.40;;
52512;SDS011;38422;53.172;6.974;2023-02-03T08:35:04;13.40;;;3.00;;
52512;SDS011;38422;53.172;6.974;2023-02-03T08:37:32;15.40;;;3.22;;
52512;SDS011;38422;53.172;6.974;2023-02-03T08:39:58;17.25;;;3.33;;
52512;SDS011;38422;53.172;6.974;2023-02-03T08:42:24;16.70;;;2.95;;
52512;SDS011;38422;53.172;6.974;2023-02-03T08:44:50;14.75;;;2.72;;
52512;SDS011;38422;53.172;6.974;2023-02-03T08:47:15;17.98;;;2.90;;
52512;SDS011;38422;53.172;6.974;2023-02-03T08:49:41;14.52;;;2.95;;
52512;SDS011;38422;53.172;6.974;2023-02-03T08:52:09;16.58;;;3.03;;
52512;SDS011;38422;53.172;6.974;2023-02-03T08:54:36;18.92;;;3.08;;
52512;SDS011;38422;53.172;6.974;2023-02-03T08:57:02;15.98;;;2.50;;
52512;SDS011;38422;53.172;6.974;2023-02-03T08:59:28;18.73;;;3.30;;
52512;SDS011;38422;53.172;6.974;2023-02-03T09:01:55;17.60;;;3.30;;
52512;SDS011;38422;53.172;6.974;2023-02-03T09:04:23;14.63;;;3.05;;
52512;SDS011;38422;53.172;6.974;2023-02-03T09:06:50;15.30;;;2.88;;
52512;SDS011;38422;53.172;6.974;2023-02-03T09:09:18;18.92;;;3.25;;
52512;SDS011;38422;53.172;6.974;2023-02-03T09:11:44;17.35;;;3.10;;
52512;SDS011;38422;53.172;6.974;2023-02-03T09:14:10;16.98;;;3.70;;
52512;SDS011;38422;53.172;6.974;2023-02-03T09:16:36;17.13;;;3.53;;
52512;SDS011;38422;53.172;6.974;2023-02-03T09:19:02;17.45;;;3.22;;
52512;SDS011;38422;53.172;6.974;2023-02-03T09:21:27;19.15;;;3.47;;
52512;SDS011;38422;53.172;6.974;2023-02-03T09:23:53;19.65;;;3.35;;
52512;SDS011;38422;53.172;6.974;2023-02-03T09:26:19;17.63;;;3.63;;
52512;SDS011;38422;53.172;6.974;2023-02-03T09:28:45;21.05;;;3.90;;
52512;SDS011;38422;53.172;6.974;2023-02-03T09:31:12;19.88;;;3.55;;
52512;SDS011;38422;53.172;6.974;2023-02-03T09:33:42;21.13;;;3.75;;
52512;SDS011;38422;53.172;6.974;2023-02-03T09:36:08;20.30;;;4.17;;
52512;SDS011;38422;53.172;6.974;2023-02-03T09:38:34;15.85;;;3.53;;
52512;SDS011;38422;53.172;6.974;2023-02-03T09:41:02;21.48;;;3.90;;
52512;SDS011;38422;53.172;6.974;2023-02-03T09:46:29;23.17;;;3.50;;
52512;SDS011;38422;53.172;6.974;2023-02-03T09:49:05;23.48;;;3.67;;
52512;SDS011;38422;53.172;6.974;2023-02-03T09:54:36;21.20;;;3.72;;
52512;SDS011;38422;53.172;6.974;2023-02-03T09:57:04;24.50;;;3.95;;
52512;SDS011;38422;53.172;6.974;2023-02-03T09:59:37;25.63;;;4.10;;
52512;SDS011;38422;53.172;6.974;2023-02-03T10:05:00;21.90;;;4.28;;
52512;SDS011;38422;53.172;6.974;2023-02-03T10:07:55;21.25;;;3.80;;
52512;SDS011;38422;53.172;6.974;2023-02-03T10:13:04;24.67;;;3.65;;
52512;SDS011;38422;53.172;6.974;2023-02-03T10:18:28;22.48;;;3.65;;
52512;SDS011;38422;53.172;6.974;2023-02-03T10:21:01;20.70;;;3.53;;
52512;SDS011;38422;53.172;6.974;2023-02-03T10:23:35;21.38;;;3.95;;
52512;SDS011;38422;53.172;6.974;2023-02-03T10:26:04;22.05;;;4.53;;
52512;SDS011;38422;53.172;6.974;2023-02-03T10:28:38;29.00;;;5.70;;
52512;SDS011;38422;53.172;6.974;2023-02-03T10:31:19;27.00;;;4.32;;
52512;SDS011;38422;53.172;6.974;2023-02-03T10:33:57;23.38;;;4.15;;
52512;SDS011;38422;53.172;6.974;2023-02-03T10:36:46;21.52;;;3.53;;
52512;SDS011;38422;53.172;6.974;2023-02-03T10:39:31;21.98;;;4.68;;
52512;SDS011;38422;53.172;6.974;2023-02-03T10:42:00;19.73;;;4.25;;
52512;SDS011;38422;53.172;6.974;2023-02-03T10:44:30;21.55;;;3.47;;
52512;SDS011;38422;53.172;6.974;2023-02-03T10:47:04;20.60;;;3.63;;
52512;SDS011;38422;53.172;6.974;2023-02-03T10:49:53;20.05;;;3.70;;
52512;SDS011;38422;53.172;6.974;2023-02-03T10:52:38;24.10;;;4.07;;
52512;SDS011;38422;53.172;6.974;2023-02-03T10:55:05;19.05;;;3.85;;
52512;SDS011;38422;53.172;6.974;2023-02-03T10:57:34;20.20;;;3.80;;
52512;SDS011;38422;53.172;6.974;2023-02-03T11:00:07;18.10;;;3.55;;
52512;SDS011;38422;53.172;6.974;2023-02-03T11:02:52;26.45;;;4.63;;
52512;SDS011;38422;53.172;6.974;2023-02-03T11:05:21;21.70;;;3.45;;
52512;SDS011;38422;53.172;6.974;2023-02-03T11:07:50;24.40;;;4.15;;
52512;SDS011;38422;53.172;6.974;2023-02-03T11:13:11;23.70;;;4.57;;
52512;SDS011;38422;53.172;6.974;2023-02-03T11:15:37;21.20;;;4.55;;
52512;SDS011;38422;53.172;6.974;2023-02-03T11:21:25;24.50;;;4.63;;
52512;SDS011;38422;53.172;6.974;2023-02-03T11:24:03;23.58;;;4.82;;
52512;SDS011;38422;53.172;6.974;2023-02-03T11:26:44;23.55;;;4.78;;
52512;SDS011;38422;53.172;6.974;2023-02-03T11:29:26;21.15;;;4.18;;
52512;SDS011;38422;53.172;6.974;2023-02-03T11:31:55;23.27;;;4.63;;
52512;SDS011;38422;53.172;6.974;2023-02-03T11:34:29;29.02;;;5.40;;
52512;SDS011;38422;53.172;6.974;2023-02-03T11:42:31;27.75;;;5.22;;
52512;SDS011;38422;53.172;6.974;2023-02-03T11:59:54;26.83;;;5.53;;
52512;SDS011;38422;53.172;6.974;2023-02-03T12:21:48;19.35;;;4.13;;
52512;SDS011;38422;53.172;6.974;2023-02-03T12:27:40;22.25;;;4.13;;
52512;SDS011;38422;53.172;6.974;2023-02-03T12:30:23;18.10;;;4.00;;
52512;SDS011;38422;53.172;6.974;2023-02-03T12:32:57;22.33;;;4.32;;
52512;SDS011;38422;53.172;6.974;2023-02-03T12:35:32;16.60;;;3.35;;
52512;SDS011;38422;53.172;6.974;2023-02-03T12:41:15;22.45;;;3.88;;
52512;SDS011;38422;53.172;6.974;2023-02-03T12:43:53;19.35;;;3.92;;
52512;SDS011;38422;53.172;6.974;2023-02-03T12:46:36;20.98;;;3.85;;
52512;SDS011;38422;53.172;6.974;2023-02-03T12:51:53;23.35;;;4.03;;
52512;SDS011;38422;53.172;6.974;2023-02-03T12:57:13;17.40;;;4.40;;
52512;SDS011;38422;53.172;6.974;2023-02-03T13:00:04;24.98;;;4.30;;
52512;SDS011;38422;53.172;6.974;2023-02-03T13:02:47;20.65;;;3.63;;
52512;SDS011;38422;53.172;6.974;2023-02-03T13:05:25;19.83;;;4.00;;
52512;SDS011;38422;53.172;6.974;2023-02-03T13:10:47;18.63;;;3.65;;
52512;SDS011;38422;53.172;6.974;2023-02-03T13:13:19;19.83;;;4.00;;
52512;SDS011;38422;53.172;6.974;2023-02-03T13:15:53;18.10;;;3.45;;
52512;SDS011;38422;53.172;6.974;2023-02-03T13:18:25;18.67;;;3.47;;
52512;SDS011;38422;53.172;6.974;2023-02-03T13:21:02;18.58;;;3.83;;
52512;SDS011;38422;53.172;6.974;2023-02-03T13:23:28;22.17;;;3.70;;
52512;SDS011;38422;53.172;6.974;2023-02-03T13:31:31;21.73;;;4.10;;
52512;SDS011;38422;53.172;6.974;2023-02-03T13:44:43;21.88;;;4.22;;
52512;SDS011;38422;53.172;6.974;2023-02-03T13:47:18;27.60;;;5.28;;
52512;SDS011;38422;53.172;6.974;2023-02-03T13:49:50;21.52;;;4.78;;
52512;SDS011;38422;53.172;6.974;2023-02-03T13:52:31;24.27;;;4.97;;
52512;SDS011;38422;53.172;6.974;2023-02-03T13:55:00;25.60;;;4.70;;
52512;SDS011;38422;53.172;6.974;2023-02-03T13:57:31;22.25;;;4.28;;
52512;SDS011;38422;53.172;6.974;2023-02-03T13:59:59;21.40;;;4.35;;
52512;SDS011;38422;53.172;6.974;2023-02-03T14:04:58;20.90;;;4.82;;
52512;SDS011;38422;53.172;6.974;2023-02-03T14:15:16;19.90;;;3.70;;
52512;SDS011;38422;53.172;6.974;2023-02-03T14:25:41;24.70;;;5.00;;
52512;SDS011;38422;53.172;6.974;2023-02-03T14:28:15;23.73;;;4.15;;
52512;SDS011;38422;53.172;6.974;2023-02-03T14:39:20;26.95;;;4.65;;
52512;SDS011;38422;53.172;6.974;2023-02-03T14:55:34;19.73;;;3.70;;
52512;SDS011;38422;53.172;6.974;2023-02-03T15:00:54;16.88;;;3.42;;
52512;SDS011;38422;53.172;6.974;2023-02-03T15:03:21;20.40;;;3.65;;
52512;SDS011;38422;53.172;6.974;2023-02-03T15:08:29;17.70;;;3.90;;
52512;SDS011;38422;53.172;6.974;2023-02-03T15:10:58;22.67;;;4.35;;
52512;SDS011;38422;53.172;6.974;2023-02-03T15:13:30;20.55;;;4.20;;
52512;SDS011;38422;53.172;6.974;2023-02-03T15:15:57;18.98;;;3.80;;
52512;SDS011;38422;53.172;6.974;2023-02-03T15:18:34;25.08;;;3.97;;
52512;SDS011;38422;53.172;6.974;2023-02-03T15:21:00;20.80;;;4.05;;
52512;SDS011;38422;53.172;6.974;2023-02-03T15:23:29;18.58;;;4.03;;
52512;SDS011;38422;53.172;6.974;2023-02-03T15:26:08;22.25;;;4.30;;
52512;SDS011;38422;53.172;6.974;2023-02-03T15:28:39;23.48;;;3.65;;
52512;SDS011;38422;53.172;6.974;2023-02-03T15:31:15;23.25;;;4.20;;
52512;SDS011;38422;53.172;6.974;2023-02-03T15:33:44;20.33;;;3.60;;
52512;SDS011;38422;53.172;6.974;2023-02-03T15:38:43;18.73;;;3.75;;
52512;SDS011;38422;53.172;6.974;2023-02-03T15:41:23;16.13;;;3.33;;
52512;SDS011;38422;53.172;6.974;2023-02-03T15:43:55;18.55;;;3.05;;
52512;SDS011;38422;53.172;6.974;2023-02-03T15:46:29;16.83;;;3.33;;
52512;SDS011;38422;53.172;6.974;2023-02-03T15:52:00;17.70;;;3.28;;
52512;SDS011;38422;53.172;6.974;2023-02-03T15:54:34;18.10;;;3.17;;
52512;SDS011;38422;53.172;6.974;2023-02-03T15:57:31;21.98;;;4.07;;
52512;SDS011;38422;53.172;6.974;2023-02-03T16:02:34;18.13;;;3.42;;
52512;SDS011;38422;53.172;6.974;2023-02-03T16:07:53;21.35;;;4.22;;
52512;SDS011;38422;53.172;6.974;2023-02-03T16:10:32;18.50;;;3.53;;
52512;SDS011;38422;53.172;6.974;2023-02-03T16:18:23;19.63;;;4.25;;
52512;SDS011;38422;53.172;6.974;2023-02-03T16:20:49;21.33;;;3.25;;
52512;SDS011;38422;53.172;6.974;2023-02-03T16:23:20;17.45;;;3.03;;
52512;SDS011;38422;53.172;6.974;2023-02-03T16:28:37;21.48;;;3.63;;
52512;SDS011;38422;53.172;6.974;2023-02-03T16:31:22;20.88;;;3.45;;
52512;SDS011;38422;53.172;6.974;2023-02-03T16:34:14;18.95;;;3.78;;
52512;SDS011;38422;53.172;6.974;2023-02-03T16:37:12;25.80;;;4.18;;
52512;SDS011;38422;53.172;6.974;2023-02-03T16:40:03;22.10;;;3.80;;
52512;SDS011;38422;53.172;6.974;2023-02-03T16:42:48;20.40;;;3.58;;
52512;SDS011;38422;53.172;6.974;2023-02-03T16:45:32;19.83;;;3.80;;
52512;SDS011;38422;53.172;6.974;2023-02-03T16:48:16;22.27;;;4.30;;
52512;SDS011;38422;53.172;6.974;2023-02-03T16:51:02;22.08;;;3.67;;
52512;SDS011;38422;53.172;6.974;2023-02-03T16:53:31;21.55;;;3.63;;
52512;SDS011;38422;53.172;6.974;2023-02-03T16:55:58;22.48;;;4.90;;
52512;SDS011;38422;53.172;6.974;2023-02-03T16:58:25;19.50;;;3.83;;
52512;SDS011;38422;53.172;6.974;2023-02-03T17:00:52;24.30;;;4.00;;
52512;SDS011;38422;53.172;6.974;2023-02-03T17:03:19;24.38;;;4.60;;
52512;SDS011;38422;53.172;6.974;2023-02-03T17:05:47;19.05;;;4.22;;
52512;SDS011;38422;53.172;6.974;2023-02-03T17:08:14;21.90;;;4.25;;
52512;SDS011;38422;53.172;6.974;2023-02-03T17:10:41;19.85;;;3.80;;
52512;SDS011;38422;53.172;6.974;2023-02-03T17:15:38;16.55;;;3.40;;
52512;SDS011;38422;53.172;6.974;2023-02-03T17:18:09;17.88;;;3.88;;
52512;SDS011;38422;53.172;6.974;2023-02-03T17:20:35;20.33;;;4.32;;
52512;SDS011;38422;53.172;6.974;2023-02-03T17:23:01;18.08;;;3.30;;
52512;SDS011;38422;53.172;6.974;2023-02-03T17:25:28;21.80;;;3.80;;
52512;SDS011;38422;53.172;6.974;2023-02-03T17:27:58;18.70;;;3.58;;
52512;SDS011;38422;53.172;6.974;2023-02-03T17:30:23;21.65;;;4.00;;
52512;SDS011;38422;53.172;6.974;2023-02-03T17:32:49;22.25;;;3.65;;
52512;SDS011;38422;53.172;6.974;2023-02-03T17:35:15;20.48;;;3.53;;
52512;SDS011;38422;53.172;6.974;2023-02-03T17:37:40;22.92;;;3.63;;
52512;SDS011;38422;53.172;6.974;2023-02-03T17:40:06;19.83;;;4.00;;
52512;SDS011;38422;53.172;6.974;2023-02-03T17:42:32;23.83;;;3.78;;
52512;SDS011;38422;53.172;6.974;2023-02-03T17:44:58;23.60;;;4.28;;
52512;SDS011;38422;53.172;6.974;2023-02-03T17:47:23;20.98;;;3.50;;
52512;SDS011;38422;53.172;6.974;2023-02-03T17:49:49;22.17;;;3.80;;
52512;SDS011;38422;53.172;6.974;2023-02-03T17:52:15;19.25;;;3.92;;
52512;SDS011;38422;53.172;6.974;2023-02-03T17:54:40;29.65;;;4.78;;
52512;SDS011;38422;53.172;6.974;2023-02-03T17:57:06;21.27;;;3.60;;
52512;SDS011;38422;53.172;6.974;2023-02-03T17:59:32;19.77;;;2.92;;
52512;SDS011;38422;53.172;6.974;2023-02-03T18:01:59;15.80;;;3.17;;
52512;SDS011;38422;53.172;6.974;2023-02-03T18:04:25;20.10;;;4.18;;